sensor_id;sensor_type;location;lat;lon;timestamp;P1;durP1;ratioP1;P2;durP2;ratioP2
2564;SDS011;1292;48.020;7.822;2023-02-19T06:46:06;2.43;;;2.03;;
2564;SDS011;1292;48.020;7.822;2023-02-19T06:48:33;1.90;;;1.80;;
2564;SDS011;1292;48.020;7.822;2023-02-19T06:51:01;2.73;;;2.13;;
2564;SDS011;1292;48.020;7.822;2023-02-19T06:53:28;2.50;;;2.30;;
2564;SDS011;1292;48.020;7.822;2023-02-19T06:55:55;2.43;;;2.23;;
2564;SDS011;1292;48.020;7.822;2023-02-19T06:58:24;1.70;;;1.60;;
2564;SDS011;1292;48.020;7.822;2023-02-19T07:00:51;2.33;;;2.10;;
2564;SDS011;1292;48.020;7.822;2023-02-19T07:03:20;2.40;;;2.13;;
2564;SDS011;1292;48.020;7.822;2023-02-19T07:05:47;2.47;;;2.27;;
2564;SDS011;1292;48.020;7.822;2023-02-19T07:08:14;2.60;;;2.40;;
2564;SDS011;1292;48.020;7.822;2023-02-19T07:10:41;4.33;;;2.40;;
2564;SDS011;1292;48.020;7.822;2023-02-19T07:13:08;2.50;;;2.00;;
2564;SDS011;1292;48.020;7.822;2023-02-19T07:15:34;2.03;;;1.87;;
2564;SDS011;1292;48.020;7.822;2023-02-19T07:18:01;2.50;;;2.23;;
2564;SDS011;1292;48.020;7.822;2023-02-19T07:20:30;2.10;;;1.90;;
2564;SDS011;1292;48.020;7.822;2023-02-19T07:22:57;3.20;;;2.10;;
2564;SDS011;1292;48.020;7.822;2023-02-19T07:25:24;2.70;;;1.97;;
2564;SDS011;1292;48.020;7.822;2023-02-19T07:27:50;2.10;;;1.90;;
2564;SDS011;1292;48.020;7.822;2023-02-19T07:30:17;2.50;;;2.07;;
2564;SDS011;1292;48.020;7.822;2023-02-19T07:32:44;2.20;;;2.00;;
2564;SDS011;1292;48.020;7.822;2023-02-19T07:35:11;2.17;;;2.00;;
2564;SDS011;1292;48.020;7.822;2023-02-19T07:37:40;2.93;;;1.93;;
2564;SDS011;1292;48.020;7.822;2023-02-19T07:40:07;2.47;;;2.27;;
2564;SDS011;1292;48.020;7.822;2023-02-19T07:42:34;3.27;;;1.80;;
2564;SDS011;1292;48.020;7.822;2023-02-19T07:45:01;2.40;;;2.20;;
2564;SDS011;1292;48.020;7.822;2023-02-19T07:47:28;2.77;;;2.10;;
2564;SDS011;1292;48.020;7.822;2023-02-19T07:49:55;2.33;;;1.93;;
2564;SDS011;1292;48.020;7.822;2023-02-19T07:52:21;2.00;;;1.77;;
2564;SDS011;1292;48.020;7.822;2023-02-19T07:54:50;2.03;;;1.80;;
2564;SDS011;1292;48.020;7.822;2023-02-19T07:57:17;2.93;;;2.70;;
2564;SDS011;1292;48.020;7.822;2023-02-19T07:59:43;2.23;;;2.03;;
2564;SDS011;1292;48.020;7.822;2023-02-19T08:02:13;2.00;;;1.90;;
2564;SDS011;1292;48.020;7.822;2023-02-19T08:04:59;2.73;;;2.23;;
2564;SDS011;1292;48.020;7.822;2023-02-19T08:07:29;10.90;;;2.20;;
2564;SDS011;1292;48.020;7.822;2023-02-19T08:09:58;2.50;;;2.30;;
2564;SDS011;1292;48.020;7.822;2023-02-19T08:12:39;2.33;;;2.13;;
2564;SDS011;1292;48.020;7.822;2023-02-19T08:15:23;2.33;;;2.13;;
2564;SDS011;1292;48.020;7.822;2023-02-19T08:17:50;3.67;;;3.33;;
2564;SDS011;1292;48.020;7.822;2023-02-19T08:20:17;6.40;;;5.80;;
2564;SDS011;1292;48.020;7.822;2023-02-19T08:22:44;2.50;;;2.33;;
2564;SDS011;1292;48.020;7.822;2023-02-19T08:25:12;2.87;;;2.60;;
2564;SDS011;1292;48.020;7.822;2023-02-19T08:27:39;3.23;;;2.40;;
2564;SDS011;1292;48.020;7.822;2023-02-19T08:30:06;4.97;;;4.53;;
2564;SDS011;1292;48.020;7.822;2023-02-19T08:32:34;2.50;;;2.30;;
2564;SDS011;1292;48.020;7.822;2023-02-19T08:35:00;3.80;;;3.50;;
2564;SDS011;1292;48.020;7.822;2023-02-19T08:37:27;3.07;;;2.77;;
2564;SDS011;1292;48.020;7.822;2023-02-19T08:39:54;3.03;;;2.27;;
2564;SDS011;1292;48.020;7.822;2023-02-19T08:42:22;1.80;;;1.70;;
2564;SDS011;1292;48.020;7.822;2023-02-19T08:44:49;2.53;;;1.90;;
2564;SDS011;1292;48.020;7.822;2023-02-19T08:47:16;1.77;;;1.60;;
2564;SDS011;1292;48.020;7.822;2023-02-19T08:49:42;2.43;;;2.23;;
2564;SDS011;1292;48.020;7.822;2023-02-19T08:52:09;1.97;;;1.77;;
2564;SDS011;1292;48.020;7.822;2023-02-19T08:54:36;2.37;;;2.03;;
2564;SDS011;1292;48.020;7.822;2023-02-19T08:57:03;4.50;;;3.93;;
2564;SDS011;1292;48.020;7.822;2023-02-19T08:59:31;3.30;;;3.00;;
2564;SDS011;1292;48.020;7.822;2023-02-19T09:01:58;2.63;;;2.20;;
2564;SDS011;1292;48.020;7.822;2023-02-19T09:04:25;2.17;;;1.97;;
2564;SDS011;1292;48.020;7.822;2023-02-19T09:06:52;1.50;;;1.40;;
2564;SDS011;1292;48.020;7.822;2023-02-19T09:09:19;1.57;;;1.40;;
2564;SDS011;1292;48.020;7.822;2023-02-19T09:11:45;2.23;;;2.03;;
2564;SDS011;1292;48.020;7.822;2023-02-19T09:14:12;2.97;;;1.60;;
2564;SDS011;1292;48.020;7.822;2023-02-19T09:16:40;2.07;;;1.87;;
2564;SDS011;1292;48.020;7.822;2023-02-19T09:19:07;4.00;;;1.40;;
2564;SDS011;1292;48.020;7.822;2023-02-19T09:21:34;2.03;;;1.60;;
2564;SDS011;1292;48.020;7.822;2023-02-19T09:24:01;1.40;;;1.30;;
2564;SDS011;1292;48.020;7.822;2023-02-19T09:26:28;1.30;;;1.20;;
2564;SDS011;1292;48.020;7.822;2023-02-19T09:28:54;1.10;;;1.00;;
2564;SDS011;1292;48.020;7.822;2023-02-19T09:31:21;0.97;;;0.90;;
2564;SDS011;1292;48.020;7.822;2023-02-19T09:33:49;1.00;;;0.90;;
2564;SDS011;1292;48.020;7.822;2023-02-19T09:36:16;2.30;;;1.47;;
2564;SDS011;1292;48.020;7.822;2023-02-19T09:38:43;1.80;;;1.60;;
2564;SDS011;1292;48.020;7.822;2023-02-19T09:41:13;1.40;;;1.30;;
2564;SDS011;1292;48.020;7.822;2023-02-19T09:43:43;1.80;;;1.70;;
2564;SDS011;1292;48.020;7.822;2023-02-19T09:46:15;1.80;;;1.70;;
2564;SDS011;1292;48.020;7.822;2023-02-19T09:48:50;1.83;;;1.60;;
2564;SDS011;1292;48.020;7.822;2023-02-19T09:51:18;2.67;;;1.10;;
2564;SDS011;1292;48.020;7.822;2023-02-19T09:53:45;1.57;;;1.07;;
2564;SDS011;1292;48.020;7.822;2023-02-19T09:56:15;2.27;;;1.20;;
2564;SDS011;1292;48.020;7.822;2023-02-19T09:58:45;1.73;;;1.20;;
2564;SDS011;1292;48.020;7.822;2023-02-19T10:01:13;1.60;;;1.13;;
2564;SDS011;1292;48.020;7.822;2023-02-19T10:03:42;2.50;;;1.17;;
2564;SDS011;1292;48.020;7.822;2023-02-19T10:06:13;1.00;;;0.90;;
2564;SDS011;1292;48.020;7.822;2023-02-19T10:08:44;1.40;;;1.30;;
2564;SDS011;1292;48.020;7.822;2023-02-19T10:11:14;2.10;;;1.10;;
2564;SDS011;1292;48.020;7.822;2023-02-19T10:13:43;1.07;;;0.97;;
2564;SDS011;1292;48.020;7.822;2023-02-19T10:16:14;1.00;;;0.90;;
2564;SDS011;1292;48.020;7.822;2023-02-19T10:18:44;1.20;;;1.00;;
2564;SDS011;1292;48.020;7.822;2023-02-19T10:21:15;1.83;;;0.90;;
2564;SDS011;1292;48.020;7.822;2023-02-19T10:23:44;1.07;;;0.80;;
2564;SDS011;1292;48.020;7.822;2023-02-19T10:26:14;1.30;;;1.10;;
2564;SDS011;1292;48.020;7.822;2023-02-19T10:28:40;1.13;;;1.03;;
2564;SDS011;1292;48.020;7.822;2023-02-19T10:31:17;1.20;;;0.80;;
2564;SDS011;1292;48.020;7.822;2023-02-19T10:33:48;1.43;;;1.03;;
2564;SDS011;1292;48.020;7.822;2023-02-19T10:36:23;2.70;;;0.90;;
2564;SDS011;1292;48.020;7.822;2023-02-19T10:38:52;1.50;;;1.30;;
2564;SDS011;1292;48.020;7.822;2023-02-19T10:41:20;1.80;;;1.03;;
2564;SDS011;1292;48.020;7.822;2023-02-19T10:43:50;0.93;;;0.83;;
2564;SDS011;1292;48.020;7.822;2023-02-19T10:46:20;1.47;;;1.00;;
2564;SDS011;1292;48.020;7.822;2023-02-19T10:48:50;1.20;;;0.90;;
2564;SDS011;1292;48.020;7.822;2023-02-19T10:51:19;0.70;;;0.70;;
2564;SDS011;1292;48.020;7.822;2023-02-19T10:53:51;1.37;;;0.93;;
2564;SDS011;1292;48.020;7.822;2023-02-19T10:56:30;3.70;;;0.90;;
2564;SDS011;1292;48.020;7.822;2023-02-19T10:59:13;0.70;;;0.70;;
2564;SDS011;1292;48.020;7.822;2023-02-19T11:01:52;0.90;;;0.90;;
2564;SDS011;1292;48.020;7.822;2023-02-19T11:04:19;0.90;;;0.90;;
2564;SDS011;1292;48.020;7.822;2023-02-19T11:06:47;2.27;;;0.80;;
2564;SDS011;1292;48.020;7.822;2023-02-19T11:09:21;1.90;;;0.97;;
2564;SDS011;1292;48.020;7.822;2023-02-19T11:11:51;0.80;;;0.80;;
2564;SDS011;1292;48.020;7.822;2023-02-19T11:14:20;0.97;;;0.80;;
2564;SDS011;1292;48.020;7.822;2023-02-19T11:16:50;0.70;;;0.70;;
2564;SDS011;1292;48.020;7.822;2023-02-19T11:19:24;1.40;;;1.20;;
2564;SDS011;1292;48.020;7.822;2023-02-19T11:21:56;1.13;;;0.60;;
2564;SDS011;1292;48.020;7.822;2023-02-19T11:24:27;1.13;;;1.03;;
2564;SDS011;1292;48.020;7.822;2023-02-19T11:26:57;0.80;;;0.77;;
2564;SDS011;1292;48.020;7.822;2023-02-19T11:29:25;1.23;;;0.97;;
2564;SDS011;1292;48.020;7.822;2023-02-19T11:31:53;0.73;;;0.73;;
2564;SDS011;1292;48.020;7.822;2023-02-19T11:34:25;0.90;;;0.90;;
2564;SDS011;1292;48.020;7.822;2023-02-19T11:37:09;0.93;;;0.90;;
2564;SDS011;1292;48.020;7.822;2023-02-19T11:39:38;0.90;;;0.90;;
2564;SDS011;1292;48.020;7.822;2023-02-19T11:42:13;1.40;;;1.30;;
2564;SDS011;1292;48.020;7.822;2023-02-19T11:44:56;1.07;;;0.97;;
2564;SDS011;1292;48.020;7.822;2023-02-19T11:47:41;1.00;;;0.90;;
2564;SDS011;1292;48.020;7.822;2023-02-19T11:50:26;0.80;;;0.80;;
2564;SDS011;1292;48.020;7.822;2023-02-19T11:53:13;1.33;;;0.80;;
2564;SDS011;1292;48.020;7.822;2023-02-19T11:55:48;0.80;;;0.80;;
2564;SDS011;1292;48.020;7.822;2023-02-19T12:01:17;1.83;;;1.23;;
2564;SDS011;1292;48.020;7.822;2023-02-19T12:03:53;1.80;;;1.20;;
2564;SDS011;1292;48.020;7.822;2023-02-19T12:06:36;1.13;;;1.00;;
2564;SDS011;1292;48.020;7.822;2023-02-19T12:09:21;1.27;;;1.10;;
2564;SDS011;1292;48.020;7.822;2023-02-19T12:12:06;1.20;;;1.10;;
2564;SDS011;1292;48.020;7.822;2023-02-19T12:14:55;2.00;;;1.00;;
2564;SDS011;1292;48.020;7.822;2023-02-19T12:17:44;1.27;;;1.17;;
2564;SDS011;1292;48.020;7.822;2023-02-19T12:20:23;1.10;;;1.00;;
2564;SDS011;1292;48.020;7.822;2023-02-19T12:22:58;1.20;;;1.10;;
2564;SDS011;1292;48.020;7.822;2023-02-19T12:25:39;1.50;;;1.40;;
2564;SDS011;1292;48.020;7.822;2023-02-19T12:28:22;1.50;;;1.37;;
2564;SDS011;1292;48.020;7.822;2023-02-19T12:31:22;2.73;;;1.70;;
2564;SDS011;1292;48.020;7.822;2023-02-19T12:37:46;1.13;;;1.00;;
2564;SDS011;1292;48.020;7.822;2023-02-19T12:40:24;1.70;;;1.10;;
2564;SDS011;1292;48.020;7.822;2023-02-19T12:43:00;1.10;;;1.00;;
2564;SDS011;1292;48.020;7.822;2023-02-19T12:45:37;1.63;;;1.20;;
2564;SDS011;1292;48.020;7.822;2023-02-19T12:48:11;2.60;;;1.00;;
2564;SDS011;1292;48.020;7.822;2023-02-19T12:50:44;4.00;;;1.73;;
2564;SDS011;1292;48.020;7.822;2023-02-19T12:53:21;2.53;;;1.90;;
2564;SDS011;1292;48.020;7.822;2023-02-19T12:55:58;1.90;;;1.27;;
2564;SDS011;1292;48.020;7.822;2023-02-19T12:58:31;1.63;;;1.40;;
2564;SDS011;1292;48.020;7.822;2023-02-19T13:01:04;2.20;;;1.40;;
2564;SDS011;1292;48.020;7.822;2023-02-19T13:03:36;3.50;;;1.90;;
2564;SDS011;1292;48.020;7.822;2023-02-19T13:06:09;2.70;;;2.00;;
2564;SDS011;1292;48.020;7.822;2023-02-19T13:08:47;4.10;;;1.00;;
2564;SDS011;1292;48.020;7.822;2023-02-19T13:11:19;2.60;;;1.00;;
2564;SDS011;1292;48.020;7.822;2023-02-19T13:13:53;1.10;;;0.87;;
2564;SDS011;1292;48.020;7.822;2023-02-19T13:16:25;2.53;;;1.00;;
2564;SDS011;1292;48.020;7.822;2023-02-19T13:18:57;2.30;;;1.20;;
2564;SDS011;1292;48.020;7.822;2023-02-19T13:21:26;1.33;;;1.13;;
2564;SDS011;1292;48.020;7.822;2023-02-19T13:24:13;4.77;;;1.20;;
2564;SDS011;1292;48.020;7.822;2023-02-19T13:27:06;2.33;;;1.10;;
2564;SDS011;1292;48.020;7.822;2023-02-19T13:29:59;4.00;;;1.13;;
2564;SDS011;1292;48.020;7.822;2023-02-19T13:32:47;1.60;;;1.50;;
2564;SDS011;1292;48.020;7.822;2023-02-19T13:35:23;1.80;;;1.67;;
2564;SDS011;1292;48.020;7.822;2023-02-19T13:37:53;5.90;;;4.73;;
2564;SDS011;1292;48.020;7.822;2023-02-19T13:40:26;6.33;;;4.80;;
2564;SDS011;1292;48.020;7.822;2023-02-19T13:42:57;6.57;;;4.47;;
2564;SDS011;1292;48.020;7.822;2023-02-19T13:45:27;12.37;;;7.60;;
2564;SDS011;1292;48.020;7.822;2023-02-19T13:48:00;4.23;;;2.50;;
2564;SDS011;1292;48.020;7.822;2023-02-19T13:50:39;5.00;;;2.00;;
2564;SDS011;1292;48.020;7.822;2023-02-19T14:04:56;10.73;;;5.63;;
2564;SDS011;1292;48.020;7.822;2023-02-19T14:16:32;5.30;;;2.27;;
2564;SDS011;1292;48.020;7.822;2023-02-19T14:19:42;2.20;;;1.63;;
2564;SDS011;1292;48.020;7.822;2023-02-19T14:25:26;5.17;;;3.00;;
2564;SDS011;1292;48.020;7.822;2023-02-19T14:28:03;2.00;;;1.80;;
2564;SDS011;1292;48.020;7.822;2023-02-19T14:30:40;4.70;;;3.47;;
2564;SDS011;1292;48.020;7.822;2023-02-19T14:33:12;2.03;;;1.70;;
2564;SDS011;1292;48.020;7.822;2023-02-19T14:35:42;2.10;;;1.50;;
2564;SDS011;1292;48.020;7.822;2023-02-19T14:38:14;1.60;;;1.50;;
2564;SDS011;1292;48.020;7.822;2023-02-19T14:40:45;1.40;;;1.30;;
2564;SDS011;1292;48.020;7.822;2023-02-19T14:43:13;2.27;;;1.50;;
2564;SDS011;1292;48.020;7.822;2023-02-19T14:45:43;2.20;;;1.63;;
2564;SDS011;1292;48.020;7.822;2023-02-19T14:48:14;7.80;;;3.07;;
2564;SDS011;1292;48.020;7.822;2023-02-19T14:50:47;4.20;;;3.30;;
2564;SDS011;1292;48.020;7.822;2023-02-19T14:53:17;3.73;;;2.10;;
2564;SDS011;1292;48.020;7.822;2023-02-19T14:55:46;1.10;;;1.00;;
2564;SDS011;1292;48.020;7.822;2023-02-19T14:58:17;3.17;;;1.60;;
2564;SDS011;1292;48.020;7.822;2023-02-19T15:00:48;3.93;;;1.37;;
2564;SDS011;1292;48.020;7.822;2023-02-19T15:03:29;1.50;;;1.40;;
2564;SDS011;1292;48.020;7.822;2023-02-19T15:05:59;1.70;;;1.30;;
2564;SDS011;1292;48.020;7.822;2023-02-19T15:08:34;4.00;;;1.70;;
2564;SDS011;1292;48.020;7.822;2023-02-19T15:11:03;3.00;;;1.40;;
2564;SDS011;1292;48.020;7.822;2023-02-19T15:13:35;3.57;;;1.30;;
2564;SDS011;1292;48.020;7.822;2023-02-19T15:16:02;4.40;;;2.80;;
2564;SDS011;1292;48.020;7.822;2023-02-19T15:18:29;2.20;;;1.90;;
2564;SDS011;1292;48.020;7.822;2023-02-19T15:21:01;1.53;;;1.37;;
2564;SDS011;1292;48.020;7.822;2023-02-19T15:23:30;3.33;;;1.53;;
2564;SDS011;1292;48.020;7.822;2023-02-19T15:26:01;1.57;;;1.47;;
2564;SDS011;1292;48.020;7.822;2023-02-19T15:28:29;3.30;;;2.63;;
2564;SDS011;1292;48.020;7.822;2023-02-19T15:31:05;2.10;;;1.10;;
2564;SDS011;1292;48.020;7.822;2023-02-19T15:33:38;4.10;;;1.83;;
2564;SDS011;1292;48.020;7.822;2023-02-19T15:36:05;2.03;;;1.90;;
2564;SDS011;1292;48.020;7.822;2023-02-19T15:38:34;1.70;;;1.60;;
2564;SDS011;1292;48.020;7.822;2023-02-19T15:41:02;1.57;;;1.47;;
2564;SDS011;1292;48.020;7.822;2023-02-19T15:43:30;2.10;;;1.80;;
2564;SDS011;1292;48.020;7.822;2023-02-19T15:46:04;11.10;;;6.23;;
2564;SDS011;1292;48.020;7.822;2023-02-19T15:48:35;3.83;;;3.10;;
2564;SDS011;1292;48.020;7.822;2023-02-19T15:51:07;4.63;;;3.83;;
2564;SDS011;1292;48.020;7.822;2023-02-19T15:53:39;11.67;;;7.30;;
2564;SDS011;1292;48.020;7.822;2023-02-19T15:56:14;10.40;;;6.43;;
2564;SDS011;1292;48.020;7.822;2023-02-19T15:58:46;13.40;;;7.43;;
2564;SDS011;1292;48.020;7.822;2023-02-19T16:01:17;7.00;;;4.50;;
2564;SDS011;1292;48.020;7.822;2023-02-19T16:03:47;9.17;;;7.07;;
2564;SDS011;1292;48.020;7.822;2023-02-19T16:06:15;12.23;;;6.33;;
2564;SDS011;1292;48.020;7.822;2023-02-19T16:08:43;4.23;;;3.50;;
2564;SDS011;1292;48.020;7.822;2023-02-19T16:11:26;2.43;;;2.23;;
2564;SDS011;1292;48.020;7.822;2023-02-19T16:14:16;3.13;;;2.87;;
2564;SDS011;1292;48.020;7.822;2023-02-19T16:16:59;3.20;;;1.70;;
2564;SDS011;1292;48.020;7.822;2023-02-19T16:19:35;3.10;;;2.30;;
2564;SDS011;1292;48.020;7.822;2023-02-19T16:22:11;2.77;;;2.57;;
2564;SDS011;1292;48.020;7.822;2023-02-19T16:24:41;3.37;;;2.10;;
2564;SDS011;1292;48.020;7.822;2023-02-19T16:27:12;3.10;;;2.80;;
2564;SDS011;1292;48.020;7.822;2023-02-19T16:29:52;5.17;;;2.47;;
2564;SDS011;1292;48.020;7.822;2023-02-19T16:32:20;2.60;;;2.40;;
2564;SDS011;1292;48.020;7.822;2023-02-19T16:34:47;2.30;;;1.90;;
2564;SDS011;1292;48.020;7.822;2023-02-19T16:37:32;3.30;;;1.93;;
2564;SDS011;1292;48.020;7.822;2023-02-19T16:43:24;2.97;;;2.30;;
2564;SDS011;1292;48.020;7.822;2023-02-19T16:45:54;4.47;;;2.30;;
2564;SDS011;1292;48.020;7.822;2023-02-19T16:48:21;2.70;;;2.50;;
2564;SDS011;1292;48.020;7.822;2023-02-19T16:50:49;4.30;;;3.00;;
2564;SDS011;1292;48.020;7.822;2023-02-19T16:53:17;4.03;;;2.30;;
2564;SDS011;1292;48.020;7.822;2023-02-19T16:55:45;4.80;;;2.40;;
2564;SDS011;1292;48.020;7.822;2023-02-19T16:58:12;3.80;;;2.60;;
2564;SDS011;1292;48.020;7.822;2023-02-19T17:00:40;2.20;;;2.00;;
2564;SDS011;1292;48.020;7.822;2023-02-19T17:03:08;3.20;;;2.07;;
2564;SDS011;1292;48.020;7.822;2023-02-19T17:05:37;8.20;;;2.87;;
2564;SDS011;1292;48.020;7.822;2023-02-19T17:08:07;2.30;;;2.10;;
2564;SDS011;1292;48.020;7.822;2023-02-19T17:10:45;2.17;;;1.77;;
2564;SDS011;1292;48.020;7.822;2023-02-19T17:13:12;5.60;;;2.17;;
2564;SDS011;1292;48.020;7.822;2023-02-19T17:15:40;3.43;;;2.13;;
2564;SDS011;1292;48.020;7.822;2023-02-19T17:18:07;4.37;;;3.10;;
2564;SDS011;1292;48.020;7.822;2023-02-19T17:20:35;3.60;;;2.10;;
2564;SDS011;1292;48.020;7.822;2023-02-19T17:23:03;2.27;;;2.07;;
2564;SDS011;1292;48.020;7.822;2023-02-19T17:25:30;2.37;;;2.00;;
2564;SDS011;1292;48.020;7.822;2023-02-19T17:27:56;2.73;;;2.50;;
2564;SDS011;1292;48.020;7.822;2023-02-19T17:30:24;2.37;;;2.17;;
2564;SDS011;1292;48.020;7.822;2023-02-19T17:32:54;3.80;;;2.87;;
2564;SDS011;1292;48.020;7.822;2023-02-19T17:35:21;4.70;;;4.30;;
2564;SDS011;1292;48.020;7.822;2023-02-19T17:37:48;5.10;;;2.80;;
2564;SDS011;1292;48.020;7.822;2023-02-19T17:40:18;4.20;;;3.30;;
2564;SDS011;1292;48.020;7.822;2023-02-19T17:42:47;4.73;;;3.80;;
2564;SDS011;1292;48.020;7.822;2023-02-19T17:45:14;4.97;;;3.73;;
2564;SDS011;1292;48.020;7.822;2023-02-19T17:47:41;3.10;;;2.80;;
2564;SDS011;1292;48.020;7.822;2023-02-19T17:50:10;3.13;;;2.67;;
2564;SDS011;1292;48.020;7.822;2023-02-19T17:52:40;4.13;;;3.10;;
2564;SDS011;1292;48.020;7.822;2023-02-19T17:55:07;3.67;;;3.10;;
2564;SDS011;1292;48.020;7.822;2023-02-19T17:57:34;6.93;;;4.03;;
2564;SDS011;1292;48.020;7.822;2023-02-19T18:00:01;4.43;;;3.60;;
2564;SDS011;1292;48.020;7.822;2023-02-19T18:02:28;5.33;;;4.40;;
2564;SDS011;1292;48.020;7.822;2023-02-19T18:04:55;16.40;;;7.77;;
2564;SDS011;1292;48.020;7.822;2023-02-19T18:07:23;9.67;;;7.83;;
2564;SDS011;1292;48.020;7.822;2023-02-19T18:09:50;8.10;;;6.80;;
2564;SDS011;1292;48.020;7.822;2023-02-19T18:12:17;6.60;;;5.13;;
2564;SDS011;1292;48.020;7.822;2023-02-19T18:14:44;4.73;;;4.20;;
2564;SDS011;1292;48.020;7.822;2023-02-19T18:17:11;5.37;;;4.93;;
2564;SDS011;1292;48.020;7.822;2023-02-19T18:19:38;6.47;;;4.73;;
2564;SDS011;1292;48.020;7.822;2023-02-19T18:22:07;6.20;;;5.60;;
2564;SDS011;1292;48.020;7.822;2023-02-19T18:24:36;8.27;;;6.03;;
2564;SDS011;1292;48.020;7.822;2023-02-19T18:27:03;9.53;;;7.20;;
2564;SDS011;1292;48.020;7.822;2023-02-19T18:29:32;9.47;;;6.60;;
2564;SDS011;1292;48.020;7.822;2023-02-19T18:31:59;9.53;;;6.93;;
2564;SDS011;1292;48.020;7.822;2023-02-19T18:34:26;15.60;;;10.03;;
2564;SDS011;1292;48.020;7.822;2023-02-19T18:36:53;17.23;;;10.33;;
2564;SDS011;1292;48.020;7.822;2023-02-19T18:39:19;8.37;;;6.70;;
2564;SDS011;1292;48.020;7.822;2023-02-19T18:41:47;8.10;;;6.00;;
2564;SDS011;1292;48.020;7.822;2023-02-19T18:44:16;7.17;;;5.63;;
2564;SDS011;1292;48.020;7.822;2023-02-19T18:46:44;5.50;;;3.90;;
2564;SDS011;1292;48.020;7.822;2023-02-19T18:49:10;4.13;;;3.73;;
2564;SDS011;1292;48.020;7.822;2023-02-19T18:51:37;4.07;;;3.70;;
2564;SDS011;1292;48.020;7.822;2023-02-19T18:54:04;5.60;;;3.50;;
2564;SDS011;1292;48.020;7.822;2023-02-19T18:56:38;5.77;;;3.80;;
2564;SDS011;1292;48.020;7.822;2023-02-19T18:59:07;5.20;;;4.50;;
2564;SDS011;1292;48.020;7.822;2023-02-19T19:01:34;5.20;;;3.70;;
2564;SDS011;1292;48.020;7.822;2023-02-19T19:04:01;3.70;;;3.30;;
2564;SDS011;1292;48.020;7.822;2023-02-19T19:06:28;7.27;;;4.07;;
2564;SDS011;1292;48.020;7.822;2023-02-19T19:08:55;3.70;;;3.40;;
2564;SDS011;1292;48.020;7.822;2023-02-19T19:11:23;4.30;;;3.90;;
2564;SDS011;1292;48.020;7.822;2023-02-19T19:13:50;7.23;;;5.40;;
2564;SDS011;1292;48.020;7.822;2023-02-19T19:16:20;5.13;;;4.30;;
2564;SDS011;1292;48.020;7.822;2023-02-19T19:18:48;7.13;;;3.80;;
2564;SDS011;1292;48.020;7.822;2023-02-19T19:21:15;7.07;;;4.43;;
2564;SDS011;1292;48.020;7.822;2023-02-19T19:23:42;5.10;;;4.70;;
2564;SDS011;1292;48.020;7.822;2023-02-19T19:26:09;5.47;;;3.60;;
2564;SDS011;1292;48.020;7.822;2023-02-19T19:28:36;6.20;;;3.63;;
2564;SDS011;1292;48.020;7.822;2023-02-19T19:31:03;4.00;;;3.37;;
2564;SDS011;1292;48.020;7.822;2023-02-19T19:33:32;6.23;;;3.80;;
2564;SDS011;1292;48.020;7.822;2023-02-19T19:35:58;6.27;;;5.03;;
2564;SDS011;1292;48.020;7.822;2023-02-19T19:38:25;5.17;;;3.97;;
2564;SDS011;1292;48.020;7.822;2023-02-19T19:40:52;4.50;;;4.10;;
2564;SDS011;1292;48.020;7.822;2023-02-19T19:43:19;5.80;;;3.40;;
2564;SDS011;1292;48.020;7.822;2023-02-19T19:45:45;3.37;;;2.93;;
2564;SDS011;1292;48.020;7.822;2023-02-19T19:48:14;4.03;;;3.43;;
2564;SDS011;1292;48.020;7.822;2023-02-19T19:50:42;9.90;;;3.47;;
2564;SDS011;1292;48.020;7.822;2023-02-19T19:53:08;6.10;;;4.37;;
2564;SDS011;1292;48.020;7.822;2023-02-19T19:55:35;5.20;;;4.37;;
2564;SDS011;1292;48.020;7.822;2023-02-19T19:58:02;5.07;;;4.23;;
2564;SDS011;1292;48.020;7.822;2023-02-19T20:00:29;5.20;;;4.10;;
2564;SDS011;1292;48.020;7.822;2023-02-19T20:02:56;6.63;;;5.80;;
2564;SDS011;1292;48.020;7.822;2023-02-19T20:05:23;5.70;;;5.20;;
2564;SDS011;1292;48.020;7.822;2023-02-19T20:07:51;4.77;;;4.30;;
2564;SDS011;1292;48.020;7.822;2023-02-19T20:10:18;7.03;;;4.13;;
2564;SDS011;1292;48.020;7.822;2023-02-19T20:12:46;6.23;;;5.70;;
2564;SDS011;1292;48.020;7.822;2023-02-19T20:15:18;6.93;;;5.17;;
2564;SDS011;1292;48.020;7.822;2023-02-19T20:17:46;9.70;;;7.77;;
2564;SDS011;1292;48.020;7.822;2023-02-19T20:20:15;6.47;;;5.80;;
2564;SDS011;1292;48.020;7.822;2023-02-19T20:22:42;8.07;;;5.20;;
2564;SDS011;1292;48.020;7.822;2023-02-19T20:25:10;6.23;;;4.93;;
2564;SDS011;1292;48.020;7.822;2023-02-19T20:27:37;5.60;;;5.10;;
2564;SDS011;1292;48.020;7.822;2023-02-19T20:30:04;7.30;;;5.40;;
2564;SDS011;1292;48.020;7.822;2023-02-19T20:32:32;8.63;;;7.60;;
2564;SDS011;1292;48.020;7.822;2023-02-19T20:34:59;8.67;;;6.00;;
2564;SDS011;1292;48.020;7.822;2023-02-19T20:37:26;7.43;;;6.20;;
2564;SDS011;1292;48.020;7.822;2023-02-19T20:39:52;9.37;;;6.10;;
2564;SDS011;1292;48.020;7.822;2023-02-19T20:42:21;4.60;;;4.20;;
2564;SDS011;1292;48.020;7.822;2023-02-19T20:44:47;7.70;;;3.77;;
2564;SDS011;1292;48.020;7.822;2023-02-19T20:47:14;5.63;;;4.93;;
2564;SDS011;1292;48.020;7.822;2023-02-19T20:49:43;6.10;;;4.00;;
2564;SDS011;1292;48.020;7.822;2023-02-19T20:52:12;5.00;;;3.47;;
2564;SDS011;1292;48.020;7.822;2023-02-19T20:54:40;4.50;;;3.80;;
2564;SDS011;1292;48.020;7.822;2023-02-19T20:57:08;5.93;;;3.90;;
2564;SDS011;1292;48.020;7.822;2023-02-19T20:59:37;5.07;;;3.50;;
2564;SDS011;1292;48.020;7.822;2023-02-19T21:02:06;5.27;;;3.43;;
2564;SDS011;1292;48.020;7.822;2023-02-19T21:04:35;4.40;;;3.43;;
2564;SDS011;1292;48.020;7.822;2023-02-19T21:07:03;4.00;;;3.60;;
2564;SDS011;1292;48.020;7.822;2023-02-19T21:09:30;6.63;;;3.87;;
2564;SDS011;1292;48.020;7.822;2023-02-19T21:11:56;3.67;;;3.37;;
2564;SDS011;1292;48.020;7.822;2023-02-19T21:14:23;5.70;;;3.63;;
2564;SDS011;1292;48.020;7.822;2023-02-19T21:16:52;5.53;;;3.20;;
2564;SDS011;1292;48.020;7.822;2023-02-19T21:19:19;4.90;;;3.87;;
2564;SDS011;1292;48.020;7.822;2023-02-19T21:21:46;4.17;;;3.77;;
2564;SDS011;1292;48.020;7.822;2023-02-19T21:24:13;6.47;;;3.87;;
2564;SDS011;1292;48.020;7.822;2023-02-19T21:26:41;6.97;;;3.87;;
2564;SDS011;1292;48.020;7.822;2023-02-19T21:29:08;6.37;;;4.80;;
2564;SDS011;1292;48.020;7.822;2023-02-19T21:31:39;3.87;;;3.57;;
2564;SDS011;1292;48.020;7.822;2023-02-19T21:34:10;4.17;;;3.77;;
2564;SDS011;1292;48.020;7.822;2023-02-19T21:36:38;5.80;;;3.90;;
2564;SDS011;1292;48.020;7.822;2023-02-19T21:39:07;3.50;;;3.20;;
2564;SDS011;1292;48.020;7.822;2023-02-19T21:41:34;3.73;;;3.43;;
2564;SDS011;1292;48.020;7.822;2023-02-19T21:44:01;5.23;;;4.17;;
2564;SDS011;1292;48.020;7.822;2023-02-19T21:46:28;5.43;;;4.77;;
2564;SDS011;1292;48.020;7.822;2023-02-19T21:48:56;6.53;;;4.13;;
2564;SDS011;1292;48.020;7.822;2023-02-19T21:51:28;3.90;;;3.50;;
2564;SDS011;1292;48.020;7.822;2023-02-19T21:53:56;5.23;;;3.93;;
2564;SDS011;1292;48.020;7.822;2023-02-19T21:56:23;4.50;;;3.80;;
2564;SDS011;1292;48.020;7.822;2023-02-19T21:58:51;8.20;;;4.50;;
